Time;durP1;ratioP1;P1;durP2;ratioP2;P2;SDS_P1;SDS_P2;PMS_P1;PMS_P2;Temp;Humidity;BMP_temperature;BMP_pressure;BME280_temperature;BME280_humidity;BME280_pressure;Samples;Min_cycle;Max_cycle;Signal;HPM_P1;HPM_P2
2024/01/24 00:01:11;;;;;;;5.53;2.80;;;12.00;99.90;;;;;;4985960;28;20026;-63
2024/01/24 00:03:36;;;;;;;5.93;3.05;;;12.00;99.90;;;;;;4990292;28;20042;-63
2024/01/24 00:06:02;;;;;;;4.10;2.85;;;12.10;99.90;;;;;;4991289;28;20030;-63
2024/01/24 00:08:28;;;;;;;4.10;2.50;;;12.10;99.90;;;;;;4969144;28;20043;-63
2024/01/24 00:10:53;;;;;;;3.38;2.33;;;12.20;99.90;;;;;;4993364;28;20443;-63
2024/01/24 00:13:19;;;;;;;6.00;2.97;;;12.20;99.90;;;;;;4993542;28;20415;-63
2024/01/24 00:15:45;;;;;;;2.95;2.35;;;12.20;99.90;;;;;;4984922;28;20078;-63
2024/01/24 00:18:10;;;;;;;3.83;2.67;;;12.20;99.90;;;;;;4992159;28;20042;-63
2024/01/24 00:20:36;;;;;;;5.45;2.15;;;12.20;99.90;;;;;;4985784;28;20041;-62
2024/01/24 00:23:02;;;;;;;4.40;2.28;;;12.20;99.90;;;;;;4993717;28;20061;-63
2024/01/24 00:25:28;;;;;;;3.78;2.10;;;12.30;99.90;;;;;;4978665;28;20482;-62
2024/01/24 00:27:53;;;;;;;3.08;1.90;;;12.30;99.90;;;;;;4985490;28;20050;-63
2024/01/24 00:30:19;;;;;;;4.05;1.80;;;12.30;99.90;;;;;;4987291;28;20073;-63
2024/01/24 00:32:45;;;;;;;3.53;1.92;;;12.30;99.90;;;;;;4988678;28;20046;-63
2024/01/24 00:35:10;;;;;;;4.13;1.77;;;12.40;99.90;;;;;;4987804;28;20208;-62
2024/01/24 00:37:36;;;;;;;5.28;1.85;;;12.40;99.90;;;;;;4993299;28;20506;-63
2024/01/24 00:40:03;;;;;;;2.45;1.58;;;12.40;99.90;;;;;;4991516;28;20062;-63
2024/01/24 00:42:28;;;;;;;8.63;4.40;;;12.40;99.90;;;;;;4986133;28;20038;-63
2024/01/24 00:44:55;;;;;;;4.05;1.70;;;12.40;99.90;;;;;;4986119;28;20082;-63
2024/01/24 00:47:21;;;;;;;2.42;2.20;;;12.40;99.90;;;;;;4992855;28;20089;-63
2024/01/24 00:49:46;;;;;;;3.60;3.08;;;12.40;99.90;;;;;;4985029;28;20161;-63
2024/01/24 00:52:12;;;;;;;3.50;2.20;;;12.50;99.90;;;;;;4985594;28;20037;-63
2024/01/24 00:54:38;;;;;;;5.80;2.22;;;12.50;99.90;;;;;;4978312;28;20114;-63
2024/01/24 00:57:04;;;;;;;6.53;5.10;;;12.50;99.90;;;;;;4991511;28;20041;-63
2024/01/24 00:59:29;;;;;;;4.82;1.90;;;12.50;99.90;;;;;;4976662;28;20076;-63
2024/01/24 01:01:55;;;;;;;2.53;1.60;;;12.60;99.90;;;;;;4982021;28;20038;-62
2024/01/24 01:04:21;;;;;;;2.55;1.70;;;12.60;99.90;;;;;;4978866;28;20042;-62
2024/01/24 01:06:47;;;;;;;5.93;3.22;;;12.60;99.90;;;;;;4989494;28;20429;-63
2024/01/24 01:09:12;;;;;;;5.97;3.95;;;12.60;99.90;;;;;;4986837;28;20042;-63
2024/01/24 01:11:38;;;;;;;3.10;2.70;;;12.60;99.90;;;;;;4982683;28;20049;-63
2024/01/24 01:14:04;;;;;;;4.15;2.15;;;12.60;99.90;;;;;;4978661;28;20040;-63
2024/01/24 01:16:29;;;;;;;2.92;1.83;;;12.50;99.90;;;;;;4977571;28;20488;-63
2024/01/24 01:18:55;;;;;;;4.35;2.08;;;12.40;99.90;;;;;;4990820;28;20038;-63
2024/01/24 01:21:21;;;;;;;2.53;1.60;;;12.40;99.90;;;;;;4988795;28;20514;-63
2024/01/24 01:23:47;;;;;;;3.17;2.00;;;12.40;99.90;;;;;;4988803;28;20046;-63
2024/01/24 01:26:13;;;;;;;2.83;1.70;;;12.40;99.90;;;;;;4979414;28;20097;-63
2024/01/24 01:28:38;;;;;;;2.10;1.45;;;12.30;99.90;;;;;;4986357;28;20046;-63
2024/01/24 01:31:05;;;;;;;1.65;1.42;;;12.40;99.90;;;;;;4991218;28;20038;-63
2024/01/24 01:33:30;;;;;;;2.95;2.75;;;12.30;99.90;;;;;;4990770;28;20447;-62
2024/01/24 01:35:56;;;;;;;2.92;2.25;;;12.30;99.90;;;;;;4991569;28;20043;-62
2024/01/24 01:38:22;;;;;;;1.63;1.40;;;12.30;99.90;;;;;;4990603;28;20030;-62
2024/01/24 01:40:49;;;;;;;1.83;1.25;;;12.30;99.90;;;;;;4981007;28;20399;-63
2024/01/24 01:43:15;;;;;;;1.80;1.50;;;12.40;99.90;;;;;;4983665;28;20113;-62
2024/01/24 01:45:41;;;;;;;1.27;1.00;;;12.40;99.90;;;;;;4982965;28;20043;-63
2024/01/24 01:48:11;;;;;;;1.10;0.88;;;12.50;99.90;;;;;;4988573;28;20097;-62
2024/01/24 01:50:38;;;;;;;3.13;1.05;;;12.50;99.90;;;;;;4983376;28;20085;-63
2024/01/24 01:53:05;;;;;;;1.73;0.90;;;12.50;99.90;;;;;;4989887;28;20053;-63
2024/01/24 01:55:33;;;;;;;2.88;1.52;;;12.50;99.90;;;;;;4989526;28;20101;-62
2024/01/24 01:58:00;;;;;;;1.65;0.85;;;12.50;99.90;;;;;;4979543;28;20035;-63
2024/01/24 02:00:26;;;;;;;2.95;1.02;;;12.50;99.90;;;;;;4988028;28;20042;-63
2024/01/24 02:02:53;;;;;;;0.73;0.70;;;12.50;99.90;;;;;;4981359;28;20048;-63
2024/01/24 02:05:19;;;;;;;3.13;0.88;;;12.50;99.90;;;;;;4981524;28;20483;-63
2024/01/24 02:07:45;;;;;;;2.03;1.00;;;12.50;99.90;;;;;;4989041;28;20038;-63
2024/01/24 02:10:14;;;;;;;3.08;1.02;;;12.40;99.90;;;;;;4988094;28;20046;-63
2024/01/24 02:12:43;;;;;;;2.25;0.80;;;12.40;99.90;;;;;;4990694;28;20443;-62
2024/01/24 02:15:09;;;;;;;0.70;0.70;;;12.40;99.90;;;;;;4985362;28;20040;-62
2024/01/24 02:17:35;;;;;;;1.42;0.90;;;12.30;99.90;;;;;;4984074;28;20142;-63
2024/01/24 02:20:03;;;;;;;1.67;1.00;;;12.30;99.90;;;;;;4984330;28;20070;-63
2024/01/24 02:22:29;;;;;;;3.70;1.30;;;12.30;99.90;;;;;;4972423;28;20035;-63
2024/01/24 02:24:54;;;;;;;2.75;1.27;;;12.30;99.90;;;;;;4988743;28;20085;-63
2024/01/24 02:27:20;;;;;;;1.48;1.13;;;12.30;99.90;;;;;;4987944;28;20030;-63
2024/01/24 02:29:45;;;;;;;3.72;0.90;;;12.30;99.90;;;;;;4990090;28;20050;-63
2024/01/24 02:32:11;;;;;;;1.38;0.90;;;12.30;99.90;;;;;;4986258;28;20047;-63
2024/01/24 02:34:37;;;;;;;2.30;1.00;;;12.30;99.90;;;;;;4987695;28;20041;-63
2024/01/24 02:37:04;;;;;;;6.05;1.30;;;12.40;99.90;;;;;;4987506;28;20117;-64
2024/01/24 02:39:29;;;;;;;1.73;1.10;;;12.30;99.90;;;;;;4979669;28;20035;-63
2024/01/24 02:41:55;;;;;;;4.35;1.40;;;12.30;99.90;;;;;;4985440;28;20050;-64
2024/01/24 02:44:21;;;;;;;1.45;0.90;;;12.30;99.90;;;;;;4980703;28;20085;-64
2024/01/24 02:46:46;;;;;;;2.22;1.20;;;12.20;99.90;;;;;;4982000;28;20057;-63
2024/01/24 02:49:12;;;;;;;4.25;1.15;;;12.10;99.90;;;;;;4979510;28;20057;-64
2024/01/24 02:51:37;;;;;;;3.00;1.40;;;12.10;99.90;;;;;;4987801;28;20046;-63
2024/01/24 02:54:04;;;;;;;4.55;1.10;;;12.10;99.90;;;;;;4980704;28;20450;-64
2024/01/24 02:56:30;;;;;;;1.83;1.00;;;12.00;99.90;;;;;;4985908;28;20398;-64
2024/01/24 02:58:55;;;;;;;5.70;1.45;;;12.00;99.90;;;;;;4984747;28;20046;-63
2024/01/24 03:01:21;;;;;;;3.25;1.05;;;12.00;99.90;;;;;;4989681;28;20085;-64
2024/01/24 03:03:47;;;;;;;4.15;1.02;;;12.00;99.90;;;;;;4985272;28;20137;-64
2024/01/24 03:06:13;;;;;;;2.35;0.90;;;12.00;99.90;;;;;;4984467;28;20034;-63
2024/01/24 03:08:49;;;;;;;7.25;1.42;;;12.00;99.90;;;;;;4986116;28;20042;-63
2024/01/24 03:11:15;;;;;;;4.30;1.48;;;12.00;99.90;;;;;;4965367;28;20054;-63
2024/01/24 03:13:40;;;;;;;8.82;1.58;;;12.00;99.90;;;;;;4993435;28;20038;-63
2024/01/24 03:16:07;;;;;;;12.52;1.73;;;12.00;99.90;;;;;;4984940;28;20045;-63
2024/01/24 03:18:38;;;;;;;6.93;1.80;;;11.90;99.90;;;;;;4994744;28;20040;-63
2024/01/24 03:21:09;;;;;;;6.20;1.77;;;11.90;99.90;;;;;;4981523;28;20045;-63
2024/01/24 03:23:38;;;;;;;8.38;1.52;;;11.90;99.90;;;;;;4994559;28;20390;-63
2024/01/24 03:26:04;;;;;;;8.82;1.85;;;11.80;99.90;;;;;;4984585;28;20125;-63
2024/01/24 03:28:30;;;;;;;9.90;1.55;;;11.80;99.90;;;;;;4994276;28;20131;-63
2024/01/24 03:30:55;;;;;;;13.20;2.13;;;11.70;99.90;;;;;;4994695;28;20057;-63
2024/01/24 03:33:21;;;;;;;5.28;1.55;;;11.70;99.90;;;;;;4987987;28;20077;-63
2024/01/24 03:35:47;;;;;;;9.30;2.00;;;11.70;99.90;;;;;;4985139;28;20049;-63
2024/01/24 03:38:13;;;;;;;7.50;1.45;;;11.60;99.90;;;;;;4994661;28;20035;-63
2024/01/24 03:40:39;;;;;;;9.15;1.88;;;11.60;99.90;;;;;;4993825;28;20125;-63
2024/01/24 03:43:05;;;;;;;7.82;1.85;;;11.60;99.90;;;;;;4987470;28;20152;-63
2024/01/24 03:45:31;;;;;;;9.77;1.73;;;11.60;99.90;;;;;;4993700;28;20046;-63
2024/01/24 03:47:57;;;;;;;13.43;1.60;;;11.60;99.90;;;;;;4992569;28;20045;-63
2024/01/24 03:50:22;;;;;;;11.13;1.98;;;11.60;99.90;;;;;;4987035;28;20670;-63
2024/01/24 03:52:48;;;;;;;8.05;1.55;;;11.60;99.90;;;;;;4987440;28;20491;-62
2024/01/24 03:55:14;;;;;;;10.10;2.15;;;11.70;99.90;;;;;;4983862;28;20109;-63
2024/01/24 03:57:40;;;;;;;11.27;2.22;;;11.70;99.90;;;;;;4984839;28;20038;-63
2024/01/24 04:00:06;;;;;;;10.32;2.28;;;11.60;99.90;;;;;;4982838;28;20031;-62
2024/01/24 04:02:32;;;;;;;11.48;2.05;;;11.60;99.90;;;;;;4991361;28;20487;-63
2024/01/24 04:04:57;;;;;;;10.18;2.78;;;11.60;99.90;;;;;;4984784;28;20050;-63
2024/01/24 04:07:23;;;;;;;15.00;3.38;;;11.50;99.90;;;;;;4986554;28;20057;-62
2024/01/24 04:09:48;;;;;;;12.15;3.08;;;11.60;99.90;;;;;;4992930;28;20121;-63
2024/01/24 04:12:14;;;;;;;18.48;3.00;;;11.60;99.90;;;;;;4993343;28;20089;-63
2024/01/24 04:14:40;;;;;;;19.42;3.28;;;11.50;99.90;;;;;;4992777;28;20466;-63
2024/01/24 04:17:05;;;;;;;18.42;2.85;;;11.60;99.90;;;;;;4989199;28;20074;-62
2024/01/24 04:19:31;;;;;;;21.08;3.13;;;11.60;99.90;;;;;;4993639;28;20073;-63
2024/01/24 04:21:57;;;;;;;14.85;3.20;;;11.60;99.90;;;;;;4982302;28;20039;-62
2024/01/24 04:24:22;;;;;;;14.25;3.20;;;11.60;99.90;;;;;;4986921;28;20041;-63
2024/01/24 04:26:48;;;;;;;18.63;3.38;;;11.70;99.90;;;;;;4990170;28;20042;-62
2024/01/24 04:29:14;;;;;;;16.90;3.00;;;11.60;99.90;;;;;;4982599;28;20427;-63
2024/01/24 04:31:40;;;;;;;22.40;3.63;;;11.60;99.90;;;;;;4991050;28;20030;-63
2024/01/24 04:34:06;;;;;;;20.40;3.45;;;11.60;99.90;;;;;;4992585;28;20121;-62
2024/01/24 04:36:32;;;;;;;18.17;3.70;;;11.70;99.90;;;;;;4986103;28;20118;-63
2024/01/24 04:38:58;;;;;;;15.15;4.13;;;11.70;99.90;;;;;;4983790;28;20070;-63
2024/01/24 04:41:23;;;;;;;19.90;3.55;;;11.70;99.90;;;;;;4983240;28;20043;-63
2024/01/24 04:43:49;;;;;;;14.48;2.88;;;11.70;99.90;;;;;;4992379;28;20038;-62
2024/01/24 04:46:15;;;;;;;21.55;3.97;;;11.80;99.90;;;;;;4987739;28;20125;-63
2024/01/24 04:48:43;;;;;;;18.05;3.88;;;11.80;99.90;;;;;;4982426;28;20041;-63
2024/01/24 04:51:08;;;;;;;22.92;3.53;;;11.80;99.90;;;;;;4992754;28;20533;-62
2024/01/24 04:53:35;;;;;;;25.67;3.72;;;11.70;99.90;;;;;;4992732;28;20287;-63
2024/01/24 04:56:00;;;;;;;15.40;3.80;;;11.80;99.90;;;;;;4982561;28;20110;-63
2024/01/24 04:58:26;;;;;;;18.77;3.45;;;11.80;99.90;;;;;;4988435;28;20157;-63
2024/01/24 05:00:52;;;;;;;20.83;3.83;;;11.70;99.90;;;;;;4985935;28;20046;-63
2024/01/24 05:03:18;;;;;;;16.50;3.47;;;11.70;99.90;;;;;;4986102;28;20043;-63
2024/01/24 05:05:43;;;;;;;22.85;4.45;;;11.70;99.90;;;;;;4990313;28;20050;-63
2024/01/24 05:08:09;;;;;;;24.23;4.10;;;11.70;99.90;;;;;;4981865;28;20038;-63
2024/01/24 05:10:34;;;;;;;18.13;4.32;;;11.70;99.90;;;;;;4991168;28;20053;-62
2024/01/24 05:13:00;;;;;;;19.02;4.43;;;11.70;99.90;;;;;;4989093;28;20595;-63
2024/01/24 05:15:26;;;;;;;22.52;4.35;;;11.70;99.90;;;;;;4986201;28;20127;-62
2024/01/24 05:17:51;;;;;;;26.02;4.18;;;11.60;99.90;;;;;;4978282;28;20044;-63
2024/01/24 05:20:17;;;;;;;25.40;5.68;;;11.60;99.90;;;;;;4987181;28;20126;-63
2024/01/24 05:22:43;;;;;;;23.70;4.43;;;11.60;99.90;;;;;;4983773;28;20074;-63
2024/01/24 05:25:09;;;;;;;15.55;3.75;;;11.60;99.90;;;;;;4984766;28;20030;-62
2024/01/24 05:27:35;;;;;;;21.58;4.68;;;11.50;99.90;;;;;;4983512;28;20565;-63
2024/01/24 05:30:02;;;;;;;26.25;4.78;;;11.50;99.90;;;;;;4988559;28;20042;-63
2024/01/24 05:32:29;;;;;;;26.33;5.25;;;11.40;99.90;;;;;;4990687;28;20122;-63
2024/01/24 05:34:54;;;;;;;25.42;5.15;;;11.40;99.90;;;;;;4989504;28;20465;-63
2024/01/24 05:37:20;;;;;;;26.33;4.95;;;11.30;99.90;;;;;;4981086;28;20042;-62
2024/01/24 05:39:47;;;;;;;27.88;4.95;;;11.30;99.90;;;;;;4992032;28;20561;-63
2024/01/24 05:42:12;;;;;;;27.60;5.22;;;11.30;99.90;;;;;;4987686;28;20074;-63
2024/01/24 05:44:38;;;;;;;26.73;4.55;;;11.20;99.90;;;;;;4982829;28;20503;-63
2024/01/24 05:47:04;;;;;;;19.67;4.43;;;11.10;99.90;;;;;;4982766;28;20076;-63
2024/01/24 05:49:33;;;;;;;18.52;4.45;;;11.10;99.90;;;;;;4980168;28;20183;-63
2024/01/24 05:51:59;;;;;;;25.00;5.13;;;11.10;99.90;;;;;;4986461;28;20042;-62
2024/01/24 05:54:25;;;;;;;23.88;4.50;;;11.00;99.90;;;;;;4981811;28;20564;-62
2024/01/24 05:56:50;;;;;;;22.63;4.03;;;11.10;99.90;;;;;;4985404;28;20038;-63
2024/01/24 05:59:16;;;;;;;21.42;4.65;;;11.00;99.90;;;;;;4986681;28;20038;-63
2024/01/24 06:01:43;;;;;;;28.23;5.15;;;11.00;99.90;;;;;;4976983;28;20066;-63
2024/01/24 06:04:08;;;;;;;29.05;5.88;;;11.00;99.90;;;;;;4984142;28;20046;-63
2024/01/24 06:06:34;;;;;;;30.10;5.40;;;11.00;99.90;;;;;;4982717;28;20065;-63
2024/01/24 06:08:59;;;;;;;21.95;5.95;;;10.90;99.90;;;;;;4987159;28;20103;-63
2024/01/24 06:11:29;;;;;;;22.05;5.30;;;11.00;99.90;;;;;;4978364;28;20053;-63
2024/01/24 06:14:01;;;;;;;29.92;5.38;;;10.90;99.90;;;;;;4987669;28;20525;-63
2024/01/24 06:16:30;;;;;;;33.30;5.35;;;10.90;99.90;;;;;;4983650;28;20121;-63
2024/01/24 06:18:56;;;;;;;22.85;4.38;;;10.90;99.90;;;;;;4983876;28;20133;-62
2024/01/24 06:21:22;;;;;;;33.05;5.78;;;10.80;99.90;;;;;;4988938;28;20506;-63
2024/01/24 06:23:47;;;;;;;30.80;5.97;;;10.80;99.90;;;;;;4984284;28;20061;-63
2024/01/24 06:26:13;;;;;;;27.83;5.50;;;10.80;99.90;;;;;;4984588;28;20065;-63
2024/01/24 06:28:39;;;;;;;36.78;6.30;;;10.80;99.90;;;;;;4995662;28;20034;-63
2024/01/24 06:31:05;;;;;;;31.98;5.40;;;10.80;99.90;;;;;;4992031;28;20035;-62
2024/01/24 06:33:30;;;;;;;27.88;5.25;;;10.80;99.90;;;;;;4984582;28;20030;-63
2024/01/24 06:35:57;;;;;;;23.02;5.00;;;10.80;99.90;;;;;;4991762;28;20046;-63
2024/01/24 06:38:23;;;;;;;34.60;5.63;;;10.80;99.90;;;;;;4991617;28;20042;-62
2024/01/24 06:40:49;;;;;;;28.48;5.43;;;10.80;99.90;;;;;;4990298;28;20038;-63
2024/01/24 06:43:18;;;;;;;30.67;5.95;;;10.80;99.90;;;;;;4994044;28;20073;-62
2024/01/24 06:45:44;;;;;;;35.15;6.47;;;10.80;99.90;;;;;;4992712;28;20486;-62
2024/01/24 06:48:10;;;;;;;25.13;4.93;;;10.80;99.90;;;;;;4988477;28;20111;-62
2024/01/24 06:50:36;;;;;;;26.75;6.00;;;10.70;99.90;;;;;;4985855;28;20137;-62
2024/01/24 06:53:02;;;;;;;25.20;5.28;;;10.80;99.90;;;;;;4988451;28;20050;-62
2024/01/24 06:55:27;;;;;;;29.45;5.45;;;10.80;99.90;;;;;;4984861;28;20042;-62
2024/01/24 06:57:53;;;;;;;21.88;5.03;;;10.70;99.90;;;;;;4978948;28;20088;-62
2024/01/24 07:00:19;;;;;;;31.65;6.25;;;10.80;99.90;;;;;;4988186;28;20102;-63
2024/01/24 07:02:45;;;;;;;32.75;5.35;;;10.80;99.90;;;;;;4994739;28;20041;-63
2024/01/24 07:05:10;;;;;;;27.58;5.63;;;10.70;99.90;;;;;;4988276;28;20034;-62
2024/01/24 07:07:37;;;;;;;32.22;5.40;;;10.80;99.90;;;;;;4989663;28;20126;-62
2024/01/24 07:10:10;;;;;;;31.55;5.95;;;10.80;99.90;;;;;;4991560;28;20526;-62
2024/01/24 07:12:39;;;;;;;27.35;5.05;;;10.80;99.90;;;;;;4986950;28;20042;-62
2024/01/24 07:15:05;;;;;;;35.85;4.93;;;10.80;99.90;;;;;;4990751;28;20038;-62
2024/01/24 07:17:30;;;;;;;31.63;5.55;;;10.80;99.90;;;;;;4991757;28;20038;-63
2024/01/24 07:19:56;;;;;;;34.05;6.00;;;10.80;99.90;;;;;;4994728;28;20049;-63
2024/01/24 07:22:22;;;;;;;33.20;6.90;;;10.70;99.90;;;;;;4993696;28;20080;-63
2024/01/24 07:24:47;;;;;;;29.35;5.88;;;10.80;99.90;;;;;;4986749;28;20046;-63
2024/01/24 07:27:13;;;;;;;29.30;6.07;;;10.80;99.90;;;;;;4992237;28;20046;-63
2024/01/24 07:29:39;;;;;;;35.45;7.15;;;10.80;99.90;;;;;;4994634;28;20477;-63
2024/01/24 07:32:05;;;;;;;28.27;5.13;;;10.80;99.90;;;;;;4983379;28;20077;-62
2024/01/24 07:34:30;;;;;;;37.53;6.68;;;10.90;99.90;;;;;;4990688;28;20118;-63
2024/01/24 07:36:56;;;;;;;29.63;5.93;;;10.90;99.90;;;;;;4990330;28;20038;-63
2024/01/24 07:39:21;;;;;;;34.25;5.43;;;10.90;99.90;;;;;;4993811;28;20490;-63
2024/01/24 07:41:47;;;;;;;33.60;6.70;;;10.90;99.90;;;;;;4989017;28;20046;-63
2024/01/24 07:44:13;;;;;;;29.45;5.80;;;10.90;99.90;;;;;;4982951;28;20046;-63
2024/01/24 07:46:43;;;;;;;24.98;5.72;;;10.90;99.90;;;;;;4987220;28;20082;-63
2024/01/24 07:49:08;;;;;;;32.92;7.15;;;10.90;99.90;;;;;;4990490;28;20042;-63
2024/01/24 07:51:34;;;;;;;32.08;5.60;;;10.90;99.90;;;;;;4982429;28;20038;-63
2024/01/24 07:54:00;;;;;;;32.35;5.90;;;10.90;99.90;;;;;;4980954;28;20522;-63
2024/01/24 07:56:25;;;;;;;32.35;5.85;;;10.90;99.90;;;;;;4986948;28;20065;-63
2024/01/24 07:58:51;;;;;;;30.27;6.40;;;10.90;99.90;;;;;;4985342;28;20470;-62
2024/01/24 08:01:17;;;;;;;36.53;6.47;;;10.90;99.90;;;;;;4992719;28;20045;-62
2024/01/24 08:03:42;;;;;;;29.55;5.97;;;10.80;99.90;;;;;;4988770;28;20044;-62
2024/01/24 08:06:08;;;;;;;34.55;6.15;;;10.80;99.90;;;;;;4981790;28;20042;-62
2024/01/24 08:08:34;;;;;;;43.10;7.05;;;10.80;99.90;;;;;;4985284;28;20049;-62
2024/01/24 08:11:00;;;;;;;30.38;6.00;;;10.80;99.90;;;;;;4992914;28;20041;-62
2024/01/24 08:13:26;;;;;;;33.45;5.97;;;10.80;99.90;;;;;;4984677;28;20058;-62
2024/01/24 08:15:51;;;;;;;34.50;5.78;;;10.90;99.90;;;;;;4990257;28;20682;-62
2024/01/24 08:18:17;;;;;;;30.85;5.88;;;10.80;99.90;;;;;;4989813;28;20039;-62
2024/01/24 08:20:43;;;;;;;32.47;6.35;;;10.80;99.90;;;;;;4991889;28;20042;-62
2024/01/24 08:23:08;;;;;;;34.63;6.38;;;10.80;99.90;;;;;;4980776;28;20042;-62
2024/01/24 08:25:34;;;;;;;33.75;5.85;;;10.70;99.90;;;;;;4985332;28;20430;-62
2024/01/24 08:28:00;;;;;;;33.53;6.43;;;10.70;99.90;;;;;;4988631;28;20078;-63
2024/01/24 08:30:25;;;;;;;33.13;5.68;;;10.80;99.90;;;;;;4985026;28;20046;-62
2024/01/24 08:32:51;;;;;;;30.48;6.05;;;10.70;99.90;;;;;;4984822;28;20415;-63
2024/01/24 08:35:17;;;;;;;35.08;5.70;;;10.70;99.90;;;;;;4987657;28;20109;-63
2024/01/24 08:37:43;;;;;;;29.15;6.03;;;10.70;99.90;;;;;;4983686;28;20158;-63
2024/01/24 08:40:10;;;;;;;34.20;7.35;;;10.70;99.90;;;;;;4992008;28;20070;-63
2024/01/24 08:42:37;;;;;;;36.10;6.80;;;10.70;99.90;;;;;;4991300;28;20050;-62
2024/01/24 08:45:03;;;;;;;42.70;7.35;;;10.70;99.90;;;;;;4986018;28;20038;-63
2024/01/24 08:47:28;;;;;;;36.70;6.20;;;10.70;99.90;;;;;;4988580;28;20046;-63
2024/01/24 08:49:56;;;;;;;35.97;7.00;;;10.80;99.90;;;;;;4990204;28;20046;-62
2024/01/24 08:52:24;;;;;;;30.15;5.88;;;10.80;99.90;;;;;;4992572;28;20042;-63
2024/01/24 08:54:50;;;;;;;32.40;6.00;;;10.80;99.90;;;;;;4984115;28;20065;-63
2024/01/24 08:57:16;;;;;;;32.88;6.55;;;10.80;99.90;;;;;;4989683;28;20088;-63
2024/01/24 08:59:41;;;;;;;37.28;7.30;;;10.80;99.90;;;;;;4989903;28;20371;-63
2024/01/24 09:02:07;;;;;;;35.80;6.80;;;10.80;99.90;;;;;;4992370;28;20045;-63
2024/01/24 09:04:33;;;;;;;28.00;5.75;;;10.80;99.90;;;;;;4989321;28;20061;-63
2024/01/24 09:06:59;;;;;;;38.40;6.38;;;10.70;99.90;;;;;;4985525;28;20031;-63
2024/01/24 09:09:25;;;;;;;29.42;6.45;;;10.80;99.90;;;;;;4991729;28;20080;-63
2024/01/24 09:11:51;;;;;;;28.80;5.93;;;10.70;99.90;;;;;;4985277;28;20407;-62
2024/01/24 09:14:17;;;;;;;31.85;6.10;;;10.70;99.90;;;;;;4987253;28;20051;-63
2024/01/24 09:16:42;;;;;;;27.73;5.25;;;10.80;99.90;;;;;;4981423;28;20043;-63
2024/01/24 09:19:08;;;;;;;31.13;5.72;;;10.80;99.90;;;;;;4986188;28;20138;-63
2024/01/24 09:21:33;;;;;;;34.60;6.22;;;10.80;99.90;;;;;;4986082;28;20492;-63
2024/01/24 09:23:59;;;;;;;30.90;6.78;;;10.70;99.90;;;;;;4981768;28;20035;-63
2024/01/24 09:26:25;;;;;;;31.73;5.78;;;10.80;99.90;;;;;;4988855;28;20038;-63
2024/01/24 09:28:51;;;;;;;30.38;5.70;;;10.80;99.90;;;;;;4986309;28;20077;-63
2024/01/24 09:31:17;;;;;;;30.20;6.30;;;10.80;99.90;;;;;;4981329;28;20030;-63
2024/01/24 09:33:43;;;;;;;30.55;6.22;;;10.80;99.90;;;;;;4975743;28;20046;-63
2024/01/24 09:36:09;;;;;;;30.05;6.38;;;10.90;99.90;;;;;;4978723;28;20451;-63
2024/01/24 09:38:35;;;;;;;26.75;6.30;;;10.80;99.90;;;;;;4986098;28;20043;-63
2024/01/24 09:41:10;;;;;;;31.60;5.78;;;10.90;99.90;;;;;;4989542;28;20113;-63
2024/01/24 09:43:39;;;;;;;30.13;5.65;;;10.90;99.90;;;;;;4986684;28;20046;-63
2024/01/24 09:46:12;;;;;;;34.05;6.07;;;10.90;99.90;;;;;;4988448;28;20058;-63
2024/01/24 09:48:38;;;;;;;28.83;5.90;;;10.90;99.90;;;;;;4978486;28;20047;-63
2024/01/24 09:51:04;;;;;;;29.17;6.47;;;10.90;99.90;;;;;;4981089;28;20537;-63
2024/01/24 09:53:32;;;;;;;32.83;5.57;;;10.90;99.90;;;;;;4983081;28;20042;-63
2024/01/24 09:55:59;;;;;;;29.25;6.43;;;11.00;99.90;;;;;;4987013;28;20049;-63
2024/01/24 09:58:25;;;;;;;35.13;6.07;;;11.10;99.90;;;;;;4988761;28;20042;-63
2024/01/24 10:00:52;;;;;;;33.78;5.80;;;11.10;99.90;;;;;;4990516;28;20044;-63
2024/01/24 10:03:18;;;;;;;26.33;5.82;;;11.10;99.90;;;;;;4984476;28;20158;-62
2024/01/24 10:05:46;;;;;;;37.10;6.45;;;11.20;99.90;;;;;;4989580;28;20034;-63
2024/01/24 10:08:11;;;;;;;22.13;5.47;;;11.10;99.90;;;;;;4989802;28;20049;-63
2024/01/24 10:10:37;;;;;;;27.23;5.97;;;11.10;99.90;;;;;;4985414;28;20035;-63
2024/01/24 10:13:04;;;;;;;29.35;6.38;;;11.20;99.90;;;;;;4987823;28;20042;-63
2024/01/24 10:15:30;;;;;;;29.33;5.40;;;11.10;99.90;;;;;;4982831;28;20039;-63
2024/01/24 10:17:56;;;;;;;27.52;5.18;;;11.10;99.90;;;;;;4980529;28;20073;-62
2024/01/24 10:20:21;;;;;;;21.52;4.55;;;11.20;99.90;;;;;;4980123;28;20039;-63
2024/01/24 10:22:47;;;;;;;31.73;5.47;;;11.20;99.90;;;;;;4982725;28;20034;-62
2024/01/24 10:25:13;;;;;;;27.40;5.28;;;11.20;99.90;;;;;;4993534;28;20038;-62
2024/01/24 10:27:40;;;;;;;31.05;5.13;;;11.20;99.90;;;;;;4985646;28;20057;-62
2024/01/24 10:30:11;;;;;;;28.40;6.00;;;11.30;99.90;;;;;;4986562;28;20031;-62
2024/01/24 10:32:37;;;;;;;26.95;5.63;;;11.30;99.90;;;;;;4990850;28;20050;-62
2024/01/24 10:35:08;;;;;;;29.85;5.57;;;11.20;99.90;;;;;;4981336;28;20072;-62
2024/01/24 10:37:34;;;;;;;32.17;5.70;;;11.20;99.90;;;;;;4988040;28;20069;-62
2024/01/24 10:40:05;;;;;;;27.77;5.25;;;11.20;99.90;;;;;;4986586;28;20434;-62
2024/01/24 10:42:39;;;;;;;31.67;6.35;;;11.20;99.90;;;;;;4985983;28;20102;-62
2024/01/24 10:45:06;;;;;;;23.65;6.20;;;11.20;99.90;;;;;;4983001;28;20043;-62
2024/01/24 10:47:33;;;;;;;29.92;5.90;;;11.30;99.90;;;;;;4977939;28;20051;-62
2024/01/24 10:50:04;;;;;;;33.33;4.97;;;11.30;99.90;;;;;;4987161;28;20048;-62
2024/01/24 10:52:32;;;;;;;25.95;6.28;;;11.30;99.90;;;;;;4985638;28;20075;-62
2024/01/24 10:55:03;;;;;;;28.15;4.80;;;11.30;99.90;;;;;;4980253;28;20038;-62
2024/01/24 10:57:32;;;;;;;29.52;5.45;;;11.30;99.90;;;;;;4981975;28;20031;-62
2024/01/24 10:59:57;;;;;;;24.67;4.97;;;11.30;99.90;;;;;;4980881;28;20502;-62
2024/01/24 11:02:23;;;;;;;26.73;5.75;;;11.30;99.90;;;;;;4986829;28;20043;-62
2024/01/24 11:04:51;;;;;;;24.17;4.88;;;11.30;99.90;;;;;;4984019;28;20041;-62
2024/01/24 11:07:27;;;;;;;33.42;5.30;;;11.40;99.90;;;;;;4982122;28;20057;-62
2024/01/24 11:10:22;;;;;;;27.00;5.05;;;11.40;99.90;;;;;;4983588;28;20038;-62
2024/01/24 11:12:48;;;;;;;19.77;4.00;;;11.40;99.90;;;;;;4980045;28;20073;-62
2024/01/24 11:15:14;;;;;;;26.88;5.68;;;11.40;99.90;;;;;;4983930;28;20041;-62
2024/01/24 11:17:42;;;;;;;21.63;4.13;;;11.40;99.90;;;;;;4988525;28;20043;-62
2024/01/24 11:20:10;;;;;;;28.50;5.18;;;11.40;99.90;;;;;;4983297;28;20038;-63
2024/01/24 11:22:37;;;;;;;20.38;4.85;;;11.50;99.90;;;;;;4985491;28;20126;-62
2024/01/24 11:25:04;;;;;;;25.48;5.00;;;11.50;99.90;;;;;;4984879;28;20050;-63
2024/01/24 11:27:35;;;;;;;25.70;5.30;;;11.50;99.90;;;;;;4986072;28;20039;-63
2024/01/24 11:30:06;;;;;;;28.27;4.78;;;11.50;99.90;;;;;;4980964;28;21874;-62
2024/01/24 11:32:44;;;;;;;21.25;4.95;;;11.50;99.90;;;;;;4990049;28;20138;-62
2024/01/24 11:35:35;;;;;;;31.27;5.32;;;11.50;99.90;;;;;;4984167;28;20040;-62
2024/01/24 11:38:16;;;;;;;28.90;5.78;;;11.50;99.90;;;;;;4986529;28;20035;-62
2024/01/24 11:40:46;;;;;;;24.38;4.68;;;11.50;99.90;;;;;;4992874;28;20042;-62
2024/01/24 11:43:28;;;;;;;28.90;4.18;;;11.50;99.90;;;;;;4988912;28;20104;-62
2024/01/24 11:45:55;;;;;;;21.67;4.05;;;11.50;99.90;;;;;;4986051;28;20126;-62
2024/01/24 11:48:20;;;;;;;23.50;4.45;;;11.50;99.90;;;;;;4985842;28;20403;-62
2024/01/24 11:50:54;;;;;;;24.63;4.97;;;11.40;99.90;;;;;;4988351;28;20133;-62
2024/01/24 11:53:20;;;;;;;25.95;5.47;;;11.50;99.90;;;;;;4986947;28;20038;-62
2024/01/24 11:55:53;;;;;;;29.58;5.03;;;11.50;99.90;;;;;;4993218;28;20113;-62
2024/01/24 11:58:19;;;;;;;25.02;4.55;;;11.50;99.90;;;;;;4989562;28;20476;-62
2024/01/24 12:00:45;;;;;;;26.65;4.53;;;11.40;99.90;;;;;;4984675;28;20050;-63
2024/01/24 12:03:15;;;;;;;21.48;5.00;;;11.40;99.90;;;;;;4986993;28;20050;-62
2024/01/24 12:05:41;;;;;;;16.27;4.07;;;11.30;99.90;;;;;;4993259;28;20458;-62
2024/01/24 12:08:08;;;;;;;32.78;4.80;;;11.30;99.90;;;;;;4987546;28;20299;-62
2024/01/24 12:10:38;;;;;;;27.73;4.88;;;11.20;99.90;;;;;;4981159;28;20125;-63
2024/01/24 12:13:05;;;;;;;23.63;5.00;;;11.20;99.90;;;;;;4980074;28;20534;-62
2024/01/24 12:15:35;;;;;;;19.83;4.82;;;11.10;99.90;;;;;;4982784;28;20050;-63
2024/01/24 12:18:06;;;;;;;24.13;4.20;;;11.20;99.90;;;;;;4987465;28;20125;-63
2024/01/24 12:20:35;;;;;;;23.25;4.38;;;11.20;99.90;;;;;;4986216;28;20045;-62
2024/01/24 12:23:04;;;;;;;21.67;3.85;;;11.20;99.90;;;;;;4989811;28;20061;-62
2024/01/24 12:25:30;;;;;;;20.40;4.22;;;11.20;99.90;;;;;;4984671;28;20045;-62
2024/01/24 12:28:00;;;;;;;28.15;4.72;;;11.10;99.90;;;;;;4989737;28;20109;-62
2024/01/24 12:30:26;;;;;;;22.15;4.13;;;11.20;99.90;;;;;;4988146;28;20034;-62
2024/01/24 12:32:57;;;;;;;24.00;4.38;;;11.20;99.90;;;;;;4983335;28;20500;-62
2024/01/24 12:35:24;;;;;;;19.42;4.32;;;11.30;99.90;;;;;;4986995;28;20467;-62
2024/01/24 12:37:51;;;;;;;23.63;4.75;;;11.20;99.90;;;;;;4984330;28;20046;-62